PBD763 UUWW-ULLI
Flight info
| Callsign | PBD763 |
|---|---|
| Flight time | 1h 12m |
| Altitude | 360 |
| Route | SUNUN M869 RAVKA N50 NUDKO T561 ODATI T875 GENPA |
| Aircraft | B738/M-VGDW/C |
Departure
| Time | 2026-04-30 18:16 |
|---|---|
| Airport | Vnukovo International Airport (UUWW) |
Arrival
| Time | 2026-04-30 19:29 |
|---|---|
| Airport | Pulkovo Airport (ULLI) |
| Time | Latitude | Longitude | Altitude | Speed | Heading |
|---|---|---|---|---|---|
| 2026-04-30 17:39 | 55.60172 | 37.28043 | 681 ft | 0 kts | 36° |
| 2026-04-30 17:55 | 55.60098 | 37.28011 | 675 ft | 4 kts | 330° |
| 2026-04-30 17:56 | 55.60080 | 37.28045 | 679 ft | 0 kts | 289° |
| 2026-04-30 18:01 | 55.60083 | 37.28031 | 679 ft | 3 kts | 291° |
| 2026-04-30 18:02 | 55.60106 | 37.27874 | 679 ft | 8 kts | 238° |
| 2026-04-30 18:02 | 55.59965 | 37.27644 | 679 ft | 10 kts | 229° |
| 2026-04-30 18:03 | 55.59799 | 37.27310 | 673 ft | 2 kts | 226° |
| 2026-04-30 18:04 | 55.59718 | 37.27160 | 669 ft | 9 kts | 226° |
| 2026-04-30 18:05 | 55.59553 | 37.26843 | 668 ft | 9 kts | 233° |
| 2026-04-30 18:06 | 55.59505 | 37.26676 | 665 ft | 0 kts | 248° |
| 2026-04-30 18:09 | 55.59459 | 37.26464 | 668 ft | 10 kts | 248° |
| 2026-04-30 18:10 | 55.59317 | 37.25838 | 668 ft | 16 kts | 248° |
| 2026-04-30 18:11 | 55.59135 | 37.25022 | 658 ft | 23 kts | 248° |
| 2026-04-30 18:11 | 55.58952 | 37.24269 | 656 ft | 23 kts | 243° |
| 2026-04-30 18:12 | 55.58795 | 37.23797 | 634 ft | 7 kts | 197° |
| 2026-04-30 18:13 | 55.58770 | 37.23803 | 637 ft | 0 kts | 159° |
| 2026-04-30 18:14 | 55.58769 | 37.23803 | 637 ft | 1 kts | 159° |
| 2026-04-30 18:15 | 55.58669 | 37.23980 | 639 ft | 10 kts | 68° |
| 2026-04-30 18:15 | 55.59495 | 37.27610 | 1285 ft | 189 kts | 68° |
| 2026-04-30 18:16 | 55.60500 | 37.32100 | 3642 ft | 200 kts | 67° |
| 2026-04-30 18:16 | 55.61524 | 37.36649 | 5925 ft | 199 kts | 66° |
| 2026-04-30 18:17 | 55.61757 | 37.39063 | 6931 ft | 203 kts | 93° |
| 2026-04-30 18:17 | 55.61329 | 37.41616 | 7092 ft | 236 kts | 118° |
| 2026-04-30 18:17 | 55.58820 | 37.46076 | 7228 ft | 270 kts | 158° |
| 2026-04-30 18:18 | 55.56982 | 37.46552 | 7237 ft | 269 kts | 188° |
| 2026-04-30 18:18 | 55.55260 | 37.45421 | 7247 ft | 264 kts | 216° |
| 2026-04-30 18:18 | 55.53866 | 37.43345 | 7243 ft | 262 kts | 225° |
| 2026-04-30 18:18 | 55.52573 | 37.41083 | 7236 ft | 262 kts | 226° |
| 2026-04-30 18:19 | 55.51287 | 37.38827 | 7239 ft | 262 kts | 226° |
| 2026-04-30 18:19 | 55.49982 | 37.36565 | 7235 ft | 262 kts | 227° |
| 2026-04-30 18:19 | 55.49023 | 37.33890 | 7233 ft | 258 kts | 255° |
| 2026-04-30 18:19 | 55.48919 | 37.30785 | 7242 ft | 257 kts | 284° |
| 2026-04-30 18:20 | 55.49650 | 37.27904 | 7237 ft | 262 kts | 309° |
| 2026-04-30 18:20 | 55.50934 | 37.25610 | 7246 ft | 264 kts | 320° |
| 2026-04-30 18:20 | 55.52318 | 37.23553 | 7221 ft | 262 kts | 321° |
| 2026-04-30 18:20 | 55.53732 | 37.21474 | 7228 ft | 260 kts | 321° |
| 2026-04-30 18:21 | 55.55104 | 37.19408 | 7252 ft | 261 kts | 317° |
| 2026-04-30 18:21 | 55.56384 | 37.17144 | 7674 ft | 268 kts | 315° |
| 2026-04-30 18:21 | 55.57674 | 37.14748 | 8674 ft | 267 kts | 314° |
| 2026-04-30 18:21 | 55.58962 | 37.12359 | 9574 ft | 271 kts | 314° |
| 2026-04-30 18:22 | 55.60274 | 37.09945 | 9956 ft | 273 kts | 315° |
| 2026-04-30 18:22 | 55.62937 | 37.05069 | 10157 ft | 275 kts | 315° |
| 2026-04-30 18:22 | 55.64315 | 37.02727 | 10199 ft | 274 kts | 325° |
| 2026-04-30 18:23 | 55.66013 | 37.01199 | 10253 ft | 278 kts | 333° |
| 2026-04-30 18:23 | 55.67615 | 36.98974 | 10269 ft | 310 kts | 315° |
| 2026-04-30 18:23 | 55.69121 | 36.96129 | 10229 ft | 319 kts | 313° |
| 2026-04-30 18:23 | 55.70629 | 36.93236 | 10244 ft | 320 kts | 314° |
| 2026-04-30 18:24 | 55.73676 | 36.87519 | 10234 ft | 318 kts | 314° |
| 2026-04-30 18:24 | 55.75202 | 36.84719 | 10350 ft | 323 kts | 315° |
| 2026-04-30 18:24 | 55.76779 | 36.81850 | 11167 ft | 325 kts | 315° |
| 2026-04-30 18:25 | 55.78360 | 36.78989 | 12115 ft | 325 kts | 315° |
| 2026-04-30 18:25 | 55.81579 | 36.73184 | 13736 ft | 335 kts | 316° |
| 2026-04-30 18:25 | 55.83226 | 36.70217 | 14493 ft | 338 kts | 316° |
| 2026-04-30 18:26 | 55.86560 | 36.64205 | 16016 ft | 344 kts | 316° |
| 2026-04-30 18:26 | 55.88247 | 36.61158 | 16765 ft | 347 kts | 317° |
| 2026-04-30 18:26 | 55.89952 | 36.58075 | 17514 ft | 351 kts | 317° |
| 2026-04-30 18:27 | 55.93403 | 36.51822 | 18919 ft | 357 kts | 317° |
| 2026-04-30 18:27 | 55.95152 | 36.48648 | 19563 ft | 360 kts | 318° |
| 2026-04-30 18:28 | 55.98681 | 36.42226 | 20844 ft | 365 kts | 319° |
| 2026-04-30 18:28 | 56.00466 | 36.38971 | 21456 ft | 368 kts | 319° |
| 2026-04-30 18:28 | 56.04074 | 36.32379 | 22661 ft | 374 kts | 319° |
| 2026-04-30 18:29 | 56.05893 | 36.29047 | 23251 ft | 376 kts | 319° |
| 2026-04-30 18:29 | 56.11441 | 36.18860 | 24747 ft | 385 kts | 320° |
| 2026-04-30 18:30 | 56.15032 | 36.11612 | 25639 ft | 397 kts | 310° |
| 2026-04-30 18:30 | 56.17607 | 36.02653 | 26513 ft | 409 kts | 301° |
| 2026-04-30 18:31 | 56.18812 | 35.98011 | 26927 ft | 412 kts | 301° |
| 2026-04-30 18:31 | 56.21925 | 35.89540 | 27713 ft | 404 kts | 319° |
| 2026-04-30 18:32 | 56.26217 | 35.83149 | 28505 ft | 401 kts | 329° |
| 2026-04-30 18:32 | 56.28487 | 35.80187 | 28866 ft | 404 kts | 329° |
| 2026-04-30 18:32 | 56.33068 | 35.74188 | 29580 ft | 409 kts | 328° |
| 2026-04-30 18:33 | 56.35372 | 35.71135 | 29918 ft | 412 kts | 328° |
| 2026-04-30 18:33 | 56.40003 | 35.64943 | 30567 ft | 416 kts | 328° |
| 2026-04-30 18:33 | 56.42324 | 35.61824 | 30911 ft | 416 kts | 328° |
| 2026-04-30 18:34 | 56.49508 | 35.52138 | 31905 ft | 418 kts | 327° |
| 2026-04-30 18:34 | 56.51846 | 35.48977 | 32237 ft | 418 kts | 327° |
| 2026-04-30 18:35 | 56.54175 | 35.45825 | 32564 ft | 418 kts | 327° |
| 2026-04-30 18:35 | 56.56509 | 35.42660 | 32868 ft | 419 kts | 327° |
| 2026-04-30 18:35 | 56.58841 | 35.39488 | 33183 ft | 420 kts | 327° |
| 2026-04-30 18:36 | 56.63468 | 35.33117 | 33806 ft | 420 kts | 326° |
| 2026-04-30 18:36 | 56.65795 | 35.29897 | 34105 ft | 421 kts | 326° |
| 2026-04-30 18:36 | 56.70460 | 35.23429 | 34617 ft | 421 kts | 326° |
| 2026-04-30 18:37 | 56.72792 | 35.20191 | 34862 ft | 422 kts | 326° |
| 2026-04-30 18:37 | 56.75124 | 35.16950 | 35090 ft | 422 kts | 326° |
| 2026-04-30 18:37 | 56.76704 | 35.14750 | 35253 ft | 423 kts | 326° |
| 2026-04-30 18:37 | 56.79040 | 35.11494 | 35468 ft | 423 kts | 326° |
| 2026-04-30 18:38 | 56.81383 | 35.08224 | 35685 ft | 424 kts | 326° |
| 2026-04-30 18:38 | 56.83692 | 35.04996 | 35917 ft | 424 kts | 326° |
| 2026-04-30 18:38 | 56.86062 | 35.01676 | 36149 ft | 424 kts | 326° |
| 2026-04-30 18:39 | 56.90745 | 34.95109 | 36230 ft | 429 kts | 326° |
| 2026-04-30 18:39 | 56.95650 | 34.88933 | 36228 ft | 425 kts | 330° |
| 2026-04-30 18:40 | 57.00588 | 34.83143 | 36238 ft | 419 kts | 330° |
| 2026-04-30 18:40 | 57.05494 | 34.77360 | 36231 ft | 419 kts | 330° |
| 2026-04-30 18:41 | 57.10371 | 34.71528 | 36224 ft | 418 kts | 330° |
| 2026-04-30 18:41 | 57.15231 | 34.65668 | 36227 ft | 418 kts | 330° |
| 2026-04-30 18:42 | 57.20096 | 34.59777 | 36223 ft | 418 kts | 330° |
| 2026-04-30 18:42 | 57.27383 | 34.50918 | 36222 ft | 418 kts | 330° |
| 2026-04-30 18:45 | 57.54453 | 34.17637 | 36210 ft | 417 kts | 330° |
| 2026-04-30 18:46 | 57.59278 | 34.11640 | 36211 ft | 416 kts | 330° |
| 2026-04-30 18:46 | 57.64091 | 34.05639 | 36204 ft | 416 kts | 330° |
| 2026-04-30 18:47 | 57.68893 | 33.99634 | 36206 ft | 414 kts | 330° |
| 2026-04-30 18:47 | 57.73674 | 33.93634 | 36203 ft | 413 kts | 330° |
| 2026-04-30 18:48 | 57.78438 | 33.87637 | 36203 ft | 412 kts | 330° |
| 2026-04-30 18:48 | 57.83193 | 33.81634 | 36199 ft | 411 kts | 330° |
| 2026-04-30 18:49 | 57.87909 | 33.75555 | 36196 ft | 412 kts | 327° |
| 2026-04-30 18:49 | 57.92365 | 33.68891 | 36196 ft | 412 kts | 325° |
| 2026-04-30 18:50 | 57.96791 | 33.62045 | 36194 ft | 411 kts | 326° |
| 2026-04-30 18:50 | 58.01210 | 33.55255 | 36188 ft | 409 kts | 326° |
| 2026-04-30 18:51 | 58.05592 | 33.48541 | 36164 ft | 396 kts | 326° |
| 2026-04-30 18:51 | 58.07686 | 33.45322 | 36172 ft | 381 kts | 326° |
| 2026-04-30 18:51 | 58.09710 | 33.42210 | 36168 ft | 368 kts | 326° |
| 2026-04-30 18:51 | 58.11661 | 33.39209 | 36172 ft | 355 kts | 327° |
| 2026-04-30 18:52 | 58.13541 | 33.36318 | 36171 ft | 343 kts | 327° |
| 2026-04-30 18:52 | 58.17278 | 33.30573 | 36203 ft | 352 kts | 327° |
| 2026-04-30 18:53 | 58.21141 | 33.24609 | 36202 ft | 364 kts | 327° |
| 2026-04-30 18:53 | 58.25092 | 33.18481 | 36191 ft | 368 kts | 326° |
| 2026-04-30 18:54 | 58.29015 | 33.12366 | 36173 ft | 359 kts | 327° |
| 2026-04-30 18:54 | 58.32844 | 33.06387 | 36180 ft | 356 kts | 327° |
| 2026-04-30 18:55 | 58.36675 | 33.00399 | 36185 ft | 356 kts | 327° |
| 2026-04-30 18:55 | 58.42426 | 32.91372 | 36182 ft | 358 kts | 327° |
| 2026-04-30 18:56 | 58.48202 | 32.82272 | 36191 ft | 367 kts | 326° |
| 2026-04-30 18:57 | 58.54021 | 32.73040 | 36164 ft | 353 kts | 327° |
| 2026-04-30 18:57 | 58.57760 | 32.67091 | 36176 ft | 353 kts | 327° |
| 2026-04-30 18:58 | 58.62683 | 32.59246 | 36176 ft | 355 kts | 327° |
| 2026-04-30 18:59 | 58.68374 | 32.50146 | 36173 ft | 355 kts | 327° |
| 2026-04-30 19:00 | 58.75932 | 32.37988 | 36172 ft | 353 kts | 327° |
| 2026-04-30 19:01 | 58.83577 | 32.25670 | 36184 ft | 363 kts | 327° |
| 2026-04-30 19:02 | 58.89409 | 32.16263 | 36178 ft | 365 kts | 327° |
| 2026-04-30 19:03 | 58.97183 | 32.03676 | 36171 ft | 363 kts | 327° |
| 2026-04-30 19:04 | 59.04827 | 31.91158 | 36077 ft | 358 kts | 326° |
| 2026-04-30 19:04 | 59.08551 | 31.84715 | 34501 ft | 363 kts | 327° |
| 2026-04-30 19:05 | 59.12297 | 31.78133 | 33031 ft | 360 kts | 325° |
| 2026-04-30 19:05 | 59.15810 | 31.71411 | 31937 ft | 347 kts | 326° |
| 2026-04-30 19:06 | 59.19195 | 31.64925 | 30825 ft | 335 kts | 327° |
| 2026-04-30 19:06 | 59.20848 | 31.61777 | 30303 ft | 329 kts | 328° |
| 2026-04-30 19:06 | 59.24081 | 31.55624 | 28938 ft | 321 kts | 328° |
| 2026-04-30 19:07 | 59.27239 | 31.49594 | 27577 ft | 314 kts | 327° |
| 2026-04-30 19:07 | 59.28789 | 31.46622 | 26926 ft | 311 kts | 327° |
| 2026-04-30 19:08 | 59.31829 | 31.40781 | 25669 ft | 306 kts | 326° |
| 2026-04-30 19:08 | 59.34841 | 31.34982 | 24453 ft | 301 kts | 326° |
| 2026-04-30 19:08 | 59.36329 | 31.32110 | 23867 ft | 299 kts | 326° |
| 2026-04-30 19:09 | 59.39271 | 31.26425 | 22569 ft | 294 kts | 325° |
| 2026-04-30 19:09 | 59.40701 | 31.23647 | 22208 ft | 284 kts | 325° |
| 2026-04-30 19:09 | 59.42087 | 31.20952 | 21749 ft | 278 kts | 325° |
| 2026-04-30 19:10 | 59.44828 | 31.15640 | 20545 ft | 277 kts | 324° |
| 2026-04-30 19:10 | 59.47553 | 31.10341 | 19448 ft | 274 kts | 323° |
| 2026-04-30 19:11 | 59.48916 | 31.07729 | 18920 ft | 271 kts | 326° |
| 2026-04-30 19:11 | 59.51335 | 31.01911 | 17757 ft | 289 kts | 300° |
| 2026-04-30 19:11 | 59.51657 | 30.97896 | 17203 ft | 308 kts | 275° |
| 2026-04-30 19:12 | 59.51110 | 30.93727 | 16707 ft | 321 kts | 255° |
| 2026-04-30 19:12 | 59.49861 | 30.89998 | 16182 ft | 335 kts | 230° |
| 2026-04-30 19:12 | 59.48005 | 30.87309 | 15708 ft | 340 kts | 212° |
| 2026-04-30 19:13 | 59.43391 | 30.86147 | 14732 ft | 337 kts | 161° |
| 2026-04-30 19:13 | 59.39892 | 30.91355 | 13773 ft | 309 kts | 114° |
| 2026-04-30 19:13 | 59.38773 | 30.94929 | 13273 ft | 305 kts | 113° |
| 2026-04-30 19:14 | 59.37962 | 30.98661 | 12757 ft | 291 kts | 95° |
| 2026-04-30 19:14 | 59.37843 | 31.02494 | 12263 ft | 275 kts | 74° |
| 2026-04-30 19:14 | 59.38404 | 31.05951 | 11760 ft | 260 kts | 54° |
| 2026-04-30 19:14 | 59.39511 | 31.08646 | 11264 ft | 252 kts | 42° |
| 2026-04-30 19:15 | 59.40407 | 31.11644 | 10712 ft | 265 kts | 69° |
| 2026-04-30 19:15 | 59.42001 | 31.17792 | 9730 ft | 248 kts | 36° |
| 2026-04-30 19:15 | 59.43481 | 31.19400 | 9183 ft | 243 kts | 14° |
| 2026-04-30 19:16 | 59.45154 | 31.19678 | 8639 ft | 243 kts | 352° |
| 2026-04-30 19:16 | 59.46746 | 31.18578 | 8116 ft | 246 kts | 330° |
| 2026-04-30 19:16 | 59.48989 | 31.13434 | 7154 ft | 251 kts | 307° |
| 2026-04-30 19:17 | 59.49940 | 31.10556 | 6682 ft | 250 kts | 305° |
| 2026-04-30 19:17 | 59.51129 | 31.04182 | 5914 ft | 241 kts | 300° |
| 2026-04-30 19:17 | 59.51999 | 31.01508 | 5785 ft | 227 kts | 311° |
| 2026-04-30 19:18 | 59.53684 | 30.97591 | 5403 ft | 221 kts | 314° |
| 2026-04-30 19:18 | 59.55018 | 30.94585 | 4880 ft | 220 kts | 314° |
| 2026-04-30 19:18 | 59.56008 | 30.92344 | 4701 ft | 216 kts | 314° |
| 2026-04-30 19:19 | 59.56995 | 30.90103 | 4570 ft | 216 kts | 313° |
| 2026-04-30 19:19 | 59.57918 | 30.87996 | 4437 ft | 209 kts | 313° |
| 2026-04-30 19:19 | 59.59747 | 30.83808 | 4194 ft | 198 kts | 313° |
| 2026-04-30 19:20 | 59.60648 | 30.81742 | 3987 ft | 197 kts | 313° |
| 2026-04-30 19:20 | 59.61521 | 30.79736 | 3861 ft | 190 kts | 314° |
| 2026-04-30 19:20 | 59.63250 | 30.75760 | 3642 ft | 193 kts | 313° |
| 2026-04-30 19:21 | 59.64128 | 30.73735 | 3545 ft | 195 kts | 313° |
| 2026-04-30 19:21 | 59.65841 | 30.69776 | 3329 ft | 185 kts | 313° |
| 2026-04-30 19:22 | 59.67672 | 30.66361 | 3133 ft | 179 kts | 327° |
| 2026-04-30 19:22 | 59.70582 | 30.62403 | 2859 ft | 158 kts | 327° |
| 2026-04-30 19:23 | 59.73235 | 30.58724 | 2638 ft | 139 kts | 327° |
| 2026-04-30 19:24 | 59.74644 | 30.56397 | 2504 ft | 133 kts | 307° |
| 2026-04-30 19:24 | 59.75040 | 30.54738 | 2501 ft | 134 kts | 293° |
| 2026-04-30 19:24 | 59.75594 | 30.51161 | 2398 ft | 137 kts | 292° |
| 2026-04-30 19:25 | 59.76399 | 30.45846 | 1871 ft | 133 kts | 291° |
| 2026-04-30 19:26 | 59.76929 | 30.42349 | 1516 ft | 132 kts | 290° |
| 2026-04-30 19:26 | 59.77457 | 30.38846 | 1160 ft | 132 kts | 289° |
| 2026-04-30 19:26 | 59.77724 | 30.37104 | 995 ft | 132 kts | 288° |
| 2026-04-30 19:27 | 59.78260 | 30.33555 | 681 ft | 135 kts | 286° |
| 2026-04-30 19:27 | 59.78783 | 30.29960 | 318 ft | 136 kts | 285° |
| 2026-04-30 19:28 | 59.79051 | 30.28161 | 127 ft | 136 kts | 286° |
| 2026-04-30 19:28 | 59.79488 | 30.25232 | 83 ft | 78 kts | 286° |
| 2026-04-30 19:29 | 59.79691 | 30.23868 | 82 ft | 34 kts | 286° |
| 2026-04-30 19:29 | 59.79756 | 30.23449 | 86 ft | 21 kts | 289° |
| 2026-04-30 19:30 | 59.79918 | 30.23040 | 83 ft | 0 kts | 329° |
| 2026-04-30 19:32 | 59.79934 | 30.23029 | 83 ft | 5 kts | 344° |
| 2026-04-30 19:32 | 59.79971 | 30.23053 | 83 ft | 7 kts | 49° |
| 2026-04-30 19:33 | 59.79975 | 30.23146 | 82 ft | 7 kts | 105° |
| 2026-04-30 19:33 | 59.79962 | 30.23245 | 82 ft | 7 kts | 104° |
| 2026-04-30 19:33 | 59.79948 | 30.23343 | 84 ft | 7 kts | 107° |
| 2026-04-30 19:33 | 59.79931 | 30.23457 | 83 ft | 9 kts | 107° |
| 2026-04-30 19:34 | 59.79911 | 30.23580 | 84 ft | 9 kts | 107° |
| 2026-04-30 19:34 | 59.79893 | 30.23700 | 84 ft | 9 kts | 105° |
| 2026-04-30 19:34 | 59.79849 | 30.24008 | 83 ft | 14 kts | 106° |
| 2026-04-30 19:35 | 59.79821 | 30.24195 | 84 ft | 14 kts | 106° |
| 2026-04-30 19:35 | 59.79795 | 30.24372 | 85 ft | 13 kts | 106° |
| 2026-04-30 19:35 | 59.79769 | 30.24543 | 88 ft | 13 kts | 107° |
| 2026-04-30 19:35 | 59.79744 | 30.24713 | 83 ft | 14 kts | 106° |
| 2026-04-30 19:36 | 59.79716 | 30.24895 | 84 ft | 14 kts | 106° |
| 2026-04-30 19:36 | 59.79688 | 30.25089 | 82 ft | 16 kts | 106° |
| 2026-04-30 19:36 | 59.79627 | 30.25499 | 82 ft | 15 kts | 106° |
| 2026-04-30 19:37 | 59.79599 | 30.25691 | 83 ft | 14 kts | 106° |
| 2026-04-30 19:37 | 59.79572 | 30.25876 | 83 ft | 14 kts | 106° |
| 2026-04-30 19:37 | 59.79546 | 30.26052 | 83 ft | 13 kts | 106° |
| 2026-04-30 19:37 | 59.79528 | 30.26170 | 85 ft | 7 kts | 106° |
| 2026-04-30 19:38 | 59.79515 | 30.26259 | 83 ft | 7 kts | 106° |
| 2026-04-30 19:38 | 59.79517 | 30.26343 | 85 ft | 7 kts | 46° |
| 2026-04-30 19:38 | 59.79560 | 30.26380 | 82 ft | 9 kts | 17° |
| 2026-04-30 19:38 | 59.79643 | 30.26428 | 83 ft | 13 kts | 16° |
| 2026-04-30 19:39 | 59.79731 | 30.26479 | 81 ft | 13 kts | 16° |
| 2026-04-30 19:39 | 59.79801 | 30.26521 | 80 ft | 9 kts | 17° |
| 2026-04-30 19:39 | 59.79859 | 30.26555 | 83 ft | 9 kts | 17° |
| 2026-04-30 19:39 | 59.79898 | 30.26580 | 80 ft | 4 kts | 25° |
| 2026-04-30 19:40 | 59.79906 | 30.26642 | 80 ft | 6 kts | 108° |
| 2026-04-30 19:40 | 59.79899 | 30.26689 | 82 ft | 0 kts | 107° |
| 2026-04-30 19:40 | 59.79897 | 30.26699 | 81 ft | 0 kts | 107° |